Terminal Aerodrome Forecast
Issued by NWS Green Bay, WI

Home | Current Version | Previous Version | Graphics & Text | Print | Product List | Glossary On
Versions: 1 2 3 4 5 6 7 8 9 10 11 12 13 14 15 16 17 18 19 20 21 22 23 24 25 26 27 28 29 30 31 32 33 34 35 36 37 38 39 40 41 42 43
000
FTUS43 KGRB 301136
TAFGRB
TAF
KGRB 301136Z 3012/3112 00000KT 1/2SM FG OVC002
      TEMPO 3012/3013 1/4SM FG
     FM301400 22003KT 2SM BR BKN006
     FM301600 21005KT 5SM BR BKN012
     FM301800 21007KT P6SM FEW020
     FM310100 19003KT P6SM SKC
     FM310800 21004KT 6SM BR BKN005=

USA.gov is the U.S. government's official web portal to all federal, state and local government web resources and services.